Skip Navigation Links Skip Navigation Links

Current Weather

Santacruz Apt, Mumbai (Bombay), India

For information only: do not use for flight planning or navigation.
Latest weather
Observation time Tuesday, December 1, 2020 8:30 PM IST
Local time Tuesday, December 1, 2020 9:07 PM IST
Flight conditions Instrument Meteorological Conditions
Winds
Wind direction North-Northwest (340°)
Wind speed 7 mph
Visibility 1.6 mi.
Present weather smoke
Sky condition
Ceiling unlimited
Temperature 86°F
Dewpoint 68°F
Altimeter 29.91 in.Hg
Derived measurements
Relative humidity 55%
Heat index 89°F
Density altitude 2090 ft.
Remarks
No significant changes expected in the next two hours.
METAR VABB 011500Z 34006KT 2500 FU NSC 30/20 Q1013 NOSIG

Settings

Location code

InnerDrive.Weather 4.0.6770.0 Release CLR 4.0.30319.42000
Copyright ©2018 Inner Drive Technology. All rights reserved. Portions Copyright ©1986-2018 David Braverman.

Find weather

Site navigation


Skip Navigation Links

Place info

Page info

PayPal - The safer, easier way to pay online!

Return home.

Copyright ©2020 Inner Drive Technology. Purveyors of fine, hand-crafted computer software. Page printed 2020-12-01T15:37:41 UTC.